sensor_id;sensor_type;location;lat;lon;timestamp;pressure;altitude;pressure_sealevel;temperature;humidity
42385;BME280;28042;43.986;22.860;2023-04-24T00:00:33;100909.13;;;10.00;100.00
42385;BME280;28042;43.986;22.860;2023-04-24T00:02:58;100936.91;;;10.25;100.00
42385;BME280;28042;43.986;22.860;2023-04-24T00:05:24;100955.16;;;10.39;100.00
42385;BME280;28042;43.986;22.860;2023-04-24T00:07:50;100937.56;;;10.41;100.00
42385;BME280;28042;43.986;22.860;2023-04-24T00:10:19;100948.63;;;10.55;100.00
42385;BME280;28042;43.986;22.860;2023-04-24T00:12:45;100941.09;;;10.57;100.00
42385;BME280;28042;43.986;22.860;2023-04-24T00:15:11;100937.19;;;10.44;100.00
42385;BME280;28042;43.986;22.860;2023-04-24T00:17:36;100941.19;;;10.63;100.00
42385;BME280;28042;43.986;22.860;2023-04-24T00:20:03;100941.72;;;10.73;100.00
42385;BME280;28042;43.986;22.860;2023-04-24T00:22:30;100955.63;;;10.79;100.00
42385;BME280;28042;43.986;22.860;2023-04-24T00:24:56;100962.41;;;10.68;100.00
42385;BME280;28042;43.986;22.860;2023-04-24T00:27:22;100906.53;;;10.42;100.00
42385;BME280;28042;43.986;22.860;2023-04-24T00:29:48;100958.09;;;10.73;100.00
42385;BME280;28042;43.986;22.860;2023-04-24T00:32:14;100965.53;;;10.65;100.00
42385;BME280;28042;43.986;22.860;2023-04-24T00:34:40;100969.97;;;10.66;100.00
42385;BME280;28042;43.986;22.860;2023-04-24T00:37:05;100970.25;;;10.71;100.00
42385;BME280;28042;43.986;22.860;2023-04-24T00:39:31;100920.97;;;10.58;100.00
42385;BME280;28042;43.986;22.860;2023-04-24T00:41:57;100885.78;;;10.63;100.00
42385;BME280;28042;43.986;22.860;2023-04-24T00:44:23;100883.41;;;10.60;100.00
42385;BME280;28042;43.986;22.860;2023-04-24T00:46:49;100908.56;;;10.76;100.00
42385;BME280;28042;43.986;22.860;2023-04-24T00:49:22;100870.94;;;10.51;100.00
42385;BME280;28042;43.986;22.860;2023-04-24T00:51:48;100849.00;;;10.37;100.00
42385;BME280;28042;43.986;22.860;2023-04-24T00:54:14;100882.03;;;10.49;100.00
42385;BME280;28042;43.986;22.860;2023-04-24T00:56:41;100871.41;;;10.54;100.00
42385;BME280;28042;43.986;22.860;2023-04-24T00:59:08;100897.09;;;10.81;100.00
42385;BME280;28042;43.986;22.860;2023-04-24T01:01:34;100890.06;;;10.72;100.00
42385;BME280;28042;43.986;22.860;2023-04-24T01:04:00;100822.13;;;10.19;100.00
42385;BME280;28042;43.986;22.860;2023-04-24T01:06:28;100846.38;;;10.29;100.00
42385;BME280;28042;43.986;22.860;2023-04-24T01:08:54;100810.94;;;10.14;100.00
42385;BME280;28042;43.986;22.860;2023-04-24T01:11:21;100820.25;;;10.20;100.00
42385;BME280;28042;43.986;22.860;2023-04-24T01:13:47;100881.47;;;10.54;100.00
42385;BME280;28042;43.986;22.860;2023-04-24T01:16:14;100872.25;;;10.55;100.00
42385;BME280;28042;43.986;22.860;2023-04-24T01:18:40;100816.47;;;10.21;100.00
42385;BME280;28042;43.986;22.860;2023-04-24T01:21:07;100865.13;;;10.54;100.00
42385;BME280;28042;43.986;22.860;2023-04-24T01:23:33;100814.59;;;10.36;100.00
42385;BME280;28042;43.986;22.860;2023-04-24T01:25:59;100865.72;;;10.70;100.00
42385;BME280;28042;43.986;22.860;2023-04-24T01:28:25;100822.50;;;10.31;100.00
42385;BME280;28042;43.986;22.860;2023-04-24T01:30:50;100877.97;;;10.60;100.00
42385;BME280;28042;43.986;22.860;2023-04-24T01:33:16;100865.97;;;10.54;100.00
42385;BME280;28042;43.986;22.860;2023-04-24T01:35:42;100873.31;;;10.54;100.00
42385;BME280;28042;43.986;22.860;2023-04-24T01:38:08;100825.69;;;10.20;100.00
42385;BME280;28042;43.986;22.860;2023-04-24T01:40:33;100835.47;;;10.29;100.00
42385;BME280;28042;43.986;22.860;2023-04-24T01:43:00;100879.00;;;10.59;100.00
42385;BME280;28042;43.986;22.860;2023-04-24T01:45:25;100873.22;;;10.47;100.00
42385;BME280;28042;43.986;22.860;2023-04-24T01:47:51;100882.78;;;10.58;100.00
42385;BME280;28042;43.986;22.860;2023-04-24T01:50:18;100892.28;;;10.62;100.00
42385;BME280;28042;43.986;22.860;2023-04-24T01:52:43;100896.69;;;10.63;100.00
42385;BME280;28042;43.986;22.860;2023-04-24T01:55:09;100906.16;;;10.67;100.00
42385;BME280;28042;43.986;22.860;2023-04-24T01:57:35;100921.38;;;10.76;100.00
42385;BME280;28042;43.986;22.860;2023-04-24T02:00:02;100873.19;;;10.62;100.00
42385;BME280;28042;43.986;22.860;2023-04-24T02:02:29;100907.47;;;10.92;100.00
42385;BME280;28042;43.986;22.860;2023-04-24T02:04:56;100905.53;;;11.08;100.00
42385;BME280;28042;43.986;22.860;2023-04-24T02:07:22;100865.19;;;10.82;100.00
42385;BME280;28042;43.986;22.860;2023-04-24T02:09:47;100884.47;;;11.01;100.00
42385;BME280;28042;43.986;22.860;2023-04-24T02:12:14;100895.50;;;11.15;100.00
42385;BME280;28042;43.986;22.860;2023-04-24T02:14:40;100873.25;;;10.90;100.00
42385;BME280;28042;43.986;22.860;2023-04-24T02:17:05;100895.16;;;10.96;100.00
42385;BME280;28042;43.986;22.860;2023-04-24T02:19:31;100815.63;;;10.57;100.00
42385;BME280;28042;43.986;22.860;2023-04-24T02:21:57;100867.56;;;10.91;100.00
42385;BME280;28042;43.986;22.860;2023-04-24T02:24:24;100878.16;;;11.01;100.00
42385;BME280;28042;43.986;22.860;2023-04-24T02:26:49;100836.13;;;10.95;100.00
42385;BME280;28042;43.986;22.860;2023-04-24T02:29:15;100850.94;;;11.08;100.00
42385;BME280;28042;43.986;22.860;2023-04-24T02:31:41;100807.31;;;10.86;100.00
42385;BME280;28042;43.986;22.860;2023-04-24T02:34:06;100766.69;;;10.76;100.00
42385;BME280;28042;43.986;22.860;2023-04-24T02:36:32;100815.88;;;11.11;100.00
42385;BME280;28042;43.986;22.860;2023-04-24T02:38:57;100826.13;;;11.37;100.00
42385;BME280;28042;43.986;22.860;2023-04-24T02:41:23;100828.50;;;11.40;100.00
42385;BME280;28042;43.986;22.860;2023-04-24T02:43:48;100770.06;;;11.07;100.00
42385;BME280;28042;43.986;22.860;2023-04-24T02:46:14;100823.88;;;11.41;100.00
42385;BME280;28042;43.986;22.860;2023-04-24T02:48:39;100831.44;;;11.39;100.00
42385;BME280;28042;43.986;22.860;2023-04-24T02:51:05;100812.25;;;11.32;100.00
42385;BME280;28042;43.986;22.860;2023-04-24T02:53:31;100821.66;;;11.23;100.00
42385;BME280;28042;43.986;22.860;2023-04-24T02:55:57;100794.53;;;10.93;100.00
42385;BME280;28042;43.986;22.860;2023-04-24T02:58:22;100820.13;;;11.14;100.00
42385;BME280;28042;43.986;22.860;2023-04-24T03:00:48;100810.66;;;11.16;100.00
42385;BME280;28042;43.986;22.860;2023-04-24T03:03:14;100812.16;;;11.19;100.00
42385;BME280;28042;43.986;22.860;2023-04-24T03:05:40;100801.44;;;11.17;100.00
42385;BME280;28042;43.986;22.860;2023-04-24T03:08:06;100805.66;;;11.20;100.00
42385;BME280;28042;43.986;22.860;2023-04-24T03:10:31;100793.25;;;11.17;100.00
42385;BME280;28042;43.986;22.860;2023-04-24T03:12:57;100738.81;;;10.81;100.00
42385;BME280;28042;43.986;22.860;2023-04-24T03:15:23;100751.84;;;10.86;100.00
42385;BME280;28042;43.986;22.860;2023-04-24T03:17:48;100765.06;;;10.82;100.00
42385;BME280;28042;43.986;22.860;2023-04-24T03:20:15;100806.69;;;11.19;100.00
42385;BME280;28042;43.986;22.860;2023-04-24T03:22:41;100809.03;;;11.22;100.00
42385;BME280;28042;43.986;22.860;2023-04-24T03:25:06;100812.63;;;11.22;100.00
42385;BME280;28042;43.986;22.860;2023-04-24T03:27:34;100798.84;;;11.09;100.00
42385;BME280;28042;43.986;22.860;2023-04-24T03:29:59;100797.47;;;10.92;100.00
42385;BME280;28042;43.986;22.860;2023-04-24T03:32:26;100783.03;;;10.70;100.00
42385;BME280;28042;43.986;22.860;2023-04-24T03:34:51;100783.03;;;10.70;100.00
42385;BME280;28042;43.986;22.860;2023-04-24T03:37:17;100786.78;;;10.69;100.00
42385;BME280;28042;43.986;22.860;2023-04-24T03:39:43;100848.88;;;10.88;100.00
42385;BME280;28042;43.986;22.860;2023-04-24T03:42:08;100810.41;;;10.40;100.00
42385;BME280;28042;43.986;22.860;2023-04-24T03:44:35;100809.34;;;10.35;100.00
42385;BME280;28042;43.986;22.860;2023-04-24T03:47:01;100863.31;;;10.61;100.00
42385;BME280;28042;43.986;22.860;2023-04-24T03:49:26;100869.25;;;10.50;100.00
42385;BME280;28042;43.986;22.860;2023-04-24T03:51:52;100822.91;;;9.99;100.00
42385;BME280;28042;43.986;22.860;2023-04-24T03:54:18;100891.25;;;10.27;100.00
42385;BME280;28042;43.986;22.860;2023-04-24T03:56:44;100820.34;;;9.76;100.00
42385;BME280;28042;43.986;22.860;2023-04-24T03:59:10;100883.59;;;10.07;100.00
42385;BME280;28042;43.986;22.860;2023-04-24T04:01:36;100881.28;;;10.04;100.00
42385;BME280;28042;43.986;22.860;2023-04-24T04:04:05;100881.56;;;10.09;100.00
42385;BME280;28042;43.986;22.860;2023-04-24T04:06:31;100888.50;;;10.12;100.00
42385;BME280;28042;43.986;22.860;2023-04-24T04:08:57;100885.59;;;10.28;100.00
42385;BME280;28042;43.986;22.860;2023-04-24T04:11:24;100839.03;;;10.15;100.00
42385;BME280;28042;43.986;22.860;2023-04-24T04:13:49;100873.81;;;10.42;100.00
42385;BME280;28042;43.986;22.860;2023-04-24T04:16:15;100869.72;;;10.53;100.00
42385;BME280;28042;43.986;22.860;2023-04-24T04:18:44;100829.78;;;10.45;100.00
42385;BME280;28042;43.986;22.860;2023-04-24T04:21:10;100822.69;;;10.51;100.00
42385;BME280;28042;43.986;22.860;2023-04-24T04:23:36;100855.75;;;10.84;100.00
42385;BME280;28042;43.986;22.860;2023-04-24T04:26:02;100855.25;;;10.95;100.00
42385;BME280;28042;43.986;22.860;2023-04-24T04:28:29;100831.06;;;10.92;100.00
42385;BME280;28042;43.986;22.860;2023-04-24T04:30:56;100856.34;;;11.29;100.00
42385;BME280;28042;43.986;22.860;2023-04-24T04:33:23;100864.00;;;11.40;100.00
42385;BME280;28042;43.986;22.860;2023-04-24T04:35:49;100851.88;;;11.49;100.00
42385;BME280;28042;43.986;22.860;2023-04-24T04:38:15;100803.59;;;11.22;100.00
42385;BME280;28042;43.986;22.860;2023-04-24T04:40:42;100800.69;;;11.30;100.00
42385;BME280;28042;43.986;22.860;2023-04-24T04:43:08;100874.09;;;11.74;100.00
42385;BME280;28042;43.986;22.860;2023-04-24T04:45:33;100870.56;;;11.80;100.00
42385;BME280;28042;43.986;22.860;2023-04-24T04:48:00;100806.22;;;11.43;100.00
42385;BME280;28042;43.986;22.860;2023-04-24T04:50:26;100823.97;;;11.60;100.00
42385;BME280;28042;43.986;22.860;2023-04-24T04:52:52;100828.19;;;11.63;100.00
42385;BME280;28042;43.986;22.860;2023-04-24T04:55:18;100821.72;;;11.71;100.00
42385;BME280;28042;43.986;22.860;2023-04-24T04:57:45;100874.28;;;12.01;100.00
42385;BME280;28042;43.986;22.860;2023-04-24T05:00:11;100877.81;;;11.95;100.00
42385;BME280;28042;43.986;22.860;2023-04-24T05:02:38;100846.31;;;11.71;100.00
42385;BME280;28042;43.986;22.860;2023-04-24T05:05:05;100860.94;;;11.84;100.00
42385;BME280;28042;43.986;22.860;2023-04-24T05:07:30;100843.47;;;11.51;100.00
42385;BME280;28042;43.986;22.860;2023-04-24T05:09:56;100841.88;;;11.35;100.00
42385;BME280;28042;43.986;22.860;2023-04-24T05:12:22;100860.00;;;11.43;100.00
42385;BME280;28042;43.986;22.860;2023-04-24T05:14:47;100842.38;;;11.45;100.00
42385;BME280;28042;43.986;22.860;2023-04-24T05:17:12;100862.19;;;11.54;100.00
42385;BME280;28042;43.986;22.860;2023-04-24T05:19:38;100846.06;;;11.31;100.00
42385;BME280;28042;43.986;22.860;2023-04-24T05:22:04;100849.03;;;11.36;100.00
42385;BME280;28042;43.986;22.860;2023-04-24T05:24:32;100896.81;;;11.75;100.00
42385;BME280;28042;43.986;22.860;2023-04-24T05:26:58;100851.63;;;11.44;100.00
42385;BME280;28042;43.986;22.860;2023-04-24T05:29:24;100908.53;;;11.69;100.00
42385;BME280;28042;43.986;22.860;2023-04-24T05:31:51;100838.13;;;11.36;100.00
42385;BME280;28042;43.986;22.860;2023-04-24T05:34:17;100886.66;;;11.69;100.00
42385;BME280;28042;43.986;22.860;2023-04-24T05:36:42;100901.47;;;11.81;100.00
42385;BME280;28042;43.986;22.860;2023-04-24T05:39:08;100900.72;;;11.94;100.00
42385;BME280;28042;43.986;22.860;2023-04-24T05:41:34;100889.34;;;11.90;100.00
42385;BME280;28042;43.986;22.860;2023-04-24T05:43:59;100899.09;;;11.99;100.00
42385;BME280;28042;43.986;22.860;2023-04-24T05:46:25;100906.94;;;12.15;100.00
42385;BME280;28042;43.986;22.860;2023-04-24T05:48:50;100896.31;;;12.34;100.00
42385;BME280;28042;43.986;22.860;2023-04-24T05:51:16;100883.69;;;12.46;100.00
42385;BME280;28042;43.986;22.860;2023-04-24T05:53:41;100891.34;;;12.64;100.00
42385;BME280;28042;43.986;22.860;2023-04-24T05:56:07;100889.66;;;12.76;100.00
42385;BME280;28042;43.986;22.860;2023-04-24T05:58:32;100885.88;;;12.84;100.00
42385;BME280;28042;43.986;22.860;2023-04-24T06:00:58;100835.75;;;12.63;100.00
42385;BME280;28042;43.986;22.860;2023-04-24T06:03:26;100823.56;;;12.86;100.00
42385;BME280;28042;43.986;22.860;2023-04-24T06:05:52;100892.25;;;13.17;100.00
42385;BME280;28042;43.986;22.860;2023-04-24T06:08:18;100825.88;;;12.89;100.00
42385;BME280;28042;43.986;22.860;2023-04-24T06:14:05;100839.56;;;13.02;100.00
42385;BME280;28042;43.986;22.860;2023-04-24T06:16:31;100877.09;;;13.48;100.00
42385;BME280;28042;43.986;22.860;2023-04-24T06:18:56;100877.50;;;13.58;100.00
42385;BME280;28042;43.986;22.860;2023-04-24T06:21:22;100872.75;;;14.05;100.00
42385;BME280;28042;43.986;22.860;2023-04-24T06:23:47;100828.81;;;14.18;100.00
42385;BME280;28042;43.986;22.860;2023-04-24T06:26:13;100825.91;;;14.45;96.83
42385;BME280;28042;43.986;22.860;2023-04-24T06:28:38;100849.75;;;15.14;95.21
42385;BME280;28042;43.986;22.860;2023-04-24T06:31:04;100825.66;;;15.34;86.66
42385;BME280;28042;43.986;22.860;2023-04-24T06:33:29;100848.88;;;15.63;86.09
42385;BME280;28042;43.986;22.860;2023-04-24T06:35:55;100804.94;;;15.57;81.65
42385;BME280;28042;43.986;22.860;2023-04-24T06:38:20;100834.28;;;15.81;78.53
42385;BME280;28042;43.986;22.860;2023-04-24T06:40:46;100836.81;;;16.19;76.22
42385;BME280;28042;43.986;22.860;2023-04-24T06:43:11;100778.91;;;16.26;77.79
42385;BME280;28042;43.986;22.860;2023-04-24T06:45:38;100774.22;;;16.56;73.12
42385;BME280;28042;43.986;22.860;2023-04-24T06:48:04;100807.75;;;16.95;73.17
42385;BME280;28042;43.986;22.860;2023-04-24T06:50:30;100808.47;;;17.02;72.89
42385;BME280;28042;43.986;22.860;2023-04-24T06:52:55;100810.94;;;16.50;72.30
42385;BME280;28042;43.986;22.860;2023-04-24T06:55:21;100772.34;;;16.27;73.46
42385;BME280;28042;43.986;22.860;2023-04-24T06:57:46;100799.06;;;16.38;75.99
42385;BME280;28042;43.986;22.860;2023-04-24T07:00:12;100779.69;;;16.45;74.65
42385;BME280;28042;43.986;22.860;2023-04-24T07:02:38;100801.91;;;16.61;75.53
42385;BME280;28042;43.986;22.860;2023-04-24T07:05:04;100823.31;;;17.01;75.23
42385;BME280;28042;43.986;22.860;2023-04-24T07:07:30;100801.66;;;17.05;72.66
42385;BME280;28042;43.986;22.860;2023-04-24T07:09:56;100839.56;;;17.33;71.73
42385;BME280;28042;43.986;22.860;2023-04-24T07:12:22;100784.03;;;16.94;69.89
42385;BME280;28042;43.986;22.860;2023-04-24T07:14:48;100771.06;;;16.83;70.15
42385;BME280;28042;43.986;22.860;2023-04-24T07:17:13;100822.00;;;16.92;71.54
42385;BME280;28042;43.986;22.860;2023-04-24T07:19:40;100821.31;;;16.66;71.44
42385;BME280;28042;43.986;22.860;2023-04-24T07:22:05;100763.09;;;16.51;72.80
42385;BME280;28042;43.986;22.860;2023-04-24T07:24:31;100797.03;;;16.75;71.04
42385;BME280;28042;43.986;22.860;2023-04-24T07:26:59;100748.19;;;16.71;70.73
42385;BME280;28042;43.986;22.860;2023-04-24T07:29:26;100752.22;;;16.68;68.67
42385;BME280;28042;43.986;22.860;2023-04-24T07:31:52;100799.16;;;17.03;69.53
42385;BME280;28042;43.986;22.860;2023-04-24T07:34:19;100775.84;;;16.76;71.00
42385;BME280;28042;43.986;22.860;2023-04-24T07:36:45;100768.38;;;16.64;72.97
42385;BME280;28042;43.986;22.860;2023-04-24T07:39:11;100739.72;;;16.54;70.68
42385;BME280;28042;43.986;22.860;2023-04-24T07:41:36;100739.09;;;16.40;70.52
42385;BME280;28042;43.986;22.860;2023-04-24T07:44:02;100822.72;;;16.57;69.54
42385;BME280;28042;43.986;22.860;2023-04-24T07:46:29;100835.25;;;16.23;70.92
42385;BME280;28042;43.986;22.860;2023-04-24T07:48:55;100842.88;;;16.09;73.05
42385;BME280;28042;43.986;22.860;2023-04-24T07:51:22;100812.28;;;15.81;74.06
42385;BME280;28042;43.986;22.860;2023-04-24T07:53:47;100836.66;;;15.96;75.42
42385;BME280;28042;43.986;22.860;2023-04-24T07:56:13;100802.66;;;15.72;76.05
42385;BME280;28042;43.986;22.860;2023-04-24T07:58:38;100847.41;;;16.16;76.20
42385;BME280;28042;43.986;22.860;2023-04-24T08:01:04;100831.22;;;15.89;77.95
42385;BME280;28042;43.986;22.860;2023-04-24T08:03:30;100831.97;;;15.60;78.35
42385;BME280;28042;43.986;22.860;2023-04-24T08:05:55;100802.75;;;15.65;77.58
42385;BME280;28042;43.986;22.860;2023-04-24T08:08:22;100806.03;;;15.74;77.63
42385;BME280;28042;43.986;22.860;2023-04-24T08:10:48;100817.88;;;15.74;78.56
42385;BME280;28042;43.986;22.860;2023-04-24T08:13:14;100788.56;;;15.98;77.43
42385;BME280;28042;43.986;22.860;2023-04-24T08:15:40;100816.00;;;16.23;75.57
42385;BME280;28042;43.986;22.860;2023-04-24T08:18:05;100837.81;;;16.25;76.91
42385;BME280;28042;43.986;22.860;2023-04-24T08:20:31;100831.47;;;16.66;76.00
42385;BME280;28042;43.986;22.860;2023-04-24T08:22:56;100834.22;;;16.54;76.36
42385;BME280;28042;43.986;22.860;2023-04-24T08:25:22;100833.03;;;16.32;77.61
42385;BME280;28042;43.986;22.860;2023-04-24T08:27:50;100809.91;;;16.33;77.63
42385;BME280;28042;43.986;22.860;2023-04-24T08:30:15;100838.19;;;17.00;76.78
42385;BME280;28042;43.986;22.860;2023-04-24T08:32:41;100799.59;;;16.77;75.29
42385;BME280;28042;43.986;22.860;2023-04-24T08:35:07;100843.69;;;17.00;74.91
42385;BME280;28042;43.986;22.860;2023-04-24T08:37:34;100797.81;;;16.64;74.82
42385;BME280;28042;43.986;22.860;2023-04-24T08:39:59;100830.66;;;17.07;74.04
42385;BME280;28042;43.986;22.860;2023-04-24T08:42:28;100838.97;;;17.31;73.86
42385;BME280;28042;43.986;22.860;2023-04-24T08:44:54;100799.16;;;17.03;71.33
42385;BME280;28042;43.986;22.860;2023-04-24T08:47:20;100839.50;;;16.98;71.77
42385;BME280;28042;43.986;22.860;2023-04-24T08:49:47;100831.13;;;16.62;74.30
42385;BME280;28042;43.986;22.860;2023-04-24T08:52:13;100824.13;;;16.48;76.05
42385;BME280;28042;43.986;22.860;2023-04-24T08:54:39;100788.75;;;15.85;78.65
42385;BME280;28042;43.986;22.860;2023-04-24T08:57:07;100776.59;;;15.56;82.57
42385;BME280;28042;43.986;22.860;2023-04-24T08:59:33;100796.53;;;15.51;83.55
42385;BME280;28042;43.986;22.860;2023-04-24T09:02:02;100821.19;;;15.40;88.68
42385;BME280;28042;43.986;22.860;2023-04-24T09:04:28;100828.09;;;15.24;91.56
42385;BME280;28042;43.986;22.860;2023-04-24T09:06:56;100811.84;;;15.22;94.61
42385;BME280;28042;43.986;22.860;2023-04-24T09:09:23;100805.78;;;15.14;97.28
42385;BME280;28042;43.986;22.860;2023-04-24T09:11:50;100804.53;;;15.10;99.03
42385;BME280;28042;43.986;22.860;2023-04-24T09:14:17;100774.50;;;14.65;100.00
42385;BME280;28042;43.986;22.860;2023-04-24T09:16:43;100822.78;;;15.04;100.00
42385;BME280;28042;43.986;22.860;2023-04-24T09:19:08;100829.25;;;15.10;100.00
42385;BME280;28042;43.986;22.860;2023-04-24T09:21:34;100830.78;;;15.06;100.00
42385;BME280;28042;43.986;22.860;2023-04-24T09:24:05;100827.97;;;14.87;100.00
42385;BME280;28042;43.986;22.860;2023-04-24T09:26:32;100858.09;;;15.01;100.00
42385;BME280;28042;43.986;22.860;2023-04-24T09:28:58;100860.56;;;15.09;100.00
42385;BME280;28042;43.986;22.860;2023-04-24T09:31:27;100863.06;;;15.35;100.00
42385;BME280;28042;43.986;22.860;2023-04-24T09:34:13;100856.22;;;15.44;100.00
42385;BME280;28042;43.986;22.860;2023-04-24T09:36:42;100840.97;;;15.48;100.00
42385;BME280;28042;43.986;22.860;2023-04-24T09:39:13;100844.28;;;15.57;100.00
42385;BME280;28042;43.986;22.860;2023-04-24T09:41:54;100854.72;;;15.73;100.00
42385;BME280;28042;43.986;22.860;2023-04-24T09:44:27;100861.59;;;15.58;100.00
42385;BME280;28042;43.986;22.860;2023-04-24T09:46:55;100866.91;;;15.34;100.00
42385;BME280;28042;43.986;22.860;2023-04-24T09:49:28;100867.19;;;15.26;98.28
42385;BME280;28042;43.986;22.860;2023-04-24T09:52:08;100824.84;;;14.52;100.00
42385;BME280;28042;43.986;22.860;2023-04-24T09:54:34;100866.59;;;14.61;100.00
42385;BME280;28042;43.986;22.860;2023-04-24T09:57:02;100862.09;;;14.28;100.00
42385;BME280;28042;43.986;22.860;2023-04-24T09:59:28;100796.88;;;13.85;100.00
42385;BME280;28042;43.986;22.860;2023-04-24T10:01:53;100841.56;;;13.93;100.00
42385;BME280;28042;43.986;22.860;2023-04-24T10:04:23;100832.63;;;14.10;100.00
42385;BME280;28042;43.986;22.860;2023-04-24T10:06:50;100781.66;;;13.90;100.00
42385;BME280;28042;43.986;22.860;2023-04-24T10:09:20;100835.13;;;14.19;100.00
42385;BME280;28042;43.986;22.860;2023-04-24T10:11:49;100780.84;;;13.82;100.00
42385;BME280;28042;43.986;22.860;2023-04-24T10:14:17;100811.50;;;14.18;100.00
42385;BME280;28042;43.986;22.860;2023-04-24T10:16:44;100807.91;;;14.17;100.00
42385;BME280;28042;43.986;22.860;2023-04-24T10:19:12;100800.38;;;14.44;100.00
42385;BME280;28042;43.986;22.860;2023-04-24T10:21:40;100790.06;;;14.71;100.00
42385;BME280;28042;43.986;22.860;2023-04-24T10:24:08;100748.66;;;14.73;100.00
42385;BME280;28042;43.986;22.860;2023-04-24T10:26:34;100747.13;;;15.02;100.00
42385;BME280;28042;43.986;22.860;2023-04-24T10:29:01;100778.81;;;15.47;100.00
42385;BME280;28042;43.986;22.860;2023-04-24T10:31:28;100715.53;;;15.11;95.76
42385;BME280;28042;43.986;22.860;2023-04-24T10:33:56;100759.22;;;15.37;94.41
42385;BME280;28042;43.986;22.860;2023-04-24T10:36:23;100719.91;;;15.37;91.56
42385;BME280;28042;43.986;22.860;2023-04-24T10:38:52;100771.03;;;15.99;91.40
42385;BME280;28042;43.986;22.860;2023-04-24T10:41:20;100756.47;;;16.10;89.51
42385;BME280;28042;43.986;22.860;2023-04-24T10:44:03;100760.47;;;16.26;89.49
42385;BME280;28042;43.986;22.860;2023-04-24T10:46:30;100717.66;;;16.00;85.32
42385;BME280;28042;43.986;22.860;2023-04-24T10:48:56;100713.06;;;16.24;85.02
42385;BME280;28042;43.986;22.860;2023-04-24T10:51:24;100740.22;;;16.51;82.64
42385;BME280;28042;43.986;22.860;2023-04-24T10:53:50;100711.03;;;16.20;78.81
42385;BME280;28042;43.986;22.860;2023-04-24T10:56:17;100729.69;;;16.59;78.31
42385;BME280;28042;43.986;22.860;2023-04-24T11:01:27;100739.69;;;16.84;79.51
42385;BME280;28042;43.986;22.860;2023-04-24T11:04:01;100732.66;;;16.46;81.41
42385;BME280;28042;43.986;22.860;2023-04-24T11:06:35;100716.88;;;16.11;84.69
42385;BME280;28042;43.986;22.860;2023-04-24T11:09:05;100702.94;;;16.48;84.44
42385;BME280;28042;43.986;22.860;2023-04-24T11:11:32;100733.69;;;16.75;84.15
42385;BME280;28042;43.986;22.860;2023-04-24T11:19:08;100750.09;;;16.93;80.82
42385;BME280;28042;43.986;22.860;2023-04-24T11:21:42;100727.66;;;16.66;81.88
42385;BME280;28042;43.986;22.860;2023-04-24T11:30:04;100714.94;;;17.59;75.64
42385;BME280;28042;43.986;22.860;2023-04-24T11:37:38;100723.13;;;18.68;72.70
42385;BME280;28042;43.986;22.860;2023-04-24T11:40:06;100726.97;;;18.67;70.87
42385;BME280;28042;43.986;22.860;2023-04-24T11:42:45;100719.28;;;18.86;70.68
42385;BME280;28042;43.986;22.860;2023-04-24T11:45:15;100678.56;;;18.81;69.10
42385;BME280;28042;43.986;22.860;2023-04-24T11:47:42;100715.31;;;18.99;69.11
42385;BME280;28042;43.986;22.860;2023-04-24T11:50:10;100718.75;;;18.89;71.79
42385;BME280;28042;43.986;22.860;2023-04-24T11:52:44;100702.28;;;18.77;70.94
42385;BME280;28042;43.986;22.860;2023-04-24T11:57:52;100710.00;;;18.47;73.84
42385;BME280;28042;43.986;22.860;2023-04-24T12:00:21;100663.16;;;18.52;71.67
42385;BME280;28042;43.986;22.860;2023-04-24T12:02:47;100654.25;;;18.83;70.53
42385;BME280;28042;43.986;22.860;2023-04-24T12:05:23;100650.41;;;18.84;66.13
42385;BME280;28042;43.986;22.860;2023-04-24T12:07:49;100679.59;;;19.36;66.53
42385;BME280;28042;43.986;22.860;2023-04-24T12:10:26;100675.81;;;19.20;67.08
42385;BME280;28042;43.986;22.860;2023-04-24T12:12:55;100677.66;;;19.14;63.68
42385;BME280;28042;43.986;22.860;2023-04-24T12:15:21;100668.06;;;19.39;65.76
42385;BME280;28042;43.986;22.860;2023-04-24T12:17:47;100661.88;;;19.32;65.77
42385;BME280;28042;43.986;22.860;2023-04-24T12:20:14;100656.41;;;19.59;66.50
42385;BME280;28042;43.986;22.860;2023-04-24T12:22:43;100659.78;;;19.44;66.60
42385;BME280;28042;43.986;22.860;2023-04-24T12:25:11;100647.25;;;19.80;64.08
42385;BME280;28042;43.986;22.860;2023-04-24T12:27:37;100639.53;;;19.82;61.90
42385;BME280;28042;43.986;22.860;2023-04-24T12:30:05;100635.22;;;20.23;62.59
42385;BME280;28042;43.986;22.860;2023-04-24T12:32:31;100583.34;;;20.46;61.19
42385;BME280;28042;43.986;22.860;2023-04-24T12:34:57;100626.94;;;19.96;64.97
42385;BME280;28042;43.986;22.860;2023-04-24T12:37:24;100613.66;;;20.30;65.76
42385;BME280;28042;43.986;22.860;2023-04-24T12:40:07;100613.56;;;20.47;65.11
42385;BME280;28042;43.986;22.860;2023-04-24T12:42:33;100594.09;;;20.42;64.98
42385;BME280;28042;43.986;22.860;2023-04-24T12:45:04;100593.88;;;20.49;64.67
42385;BME280;28042;43.986;22.860;2023-04-24T12:47:32;100549.88;;;19.88;65.96
42385;BME280;28042;43.986;22.860;2023-04-24T12:49:58;100590.25;;;20.11;66.69
42385;BME280;28042;43.986;22.860;2023-04-24T12:52:25;100579.50;;;20.20;66.65
42385;BME280;28042;43.986;22.860;2023-04-24T12:54:56;100535.19;;;20.20;66.28